sensor_id;sensor_type;location;lat;lon;timestamp;P1;durP1;ratioP1;P2;durP2;ratioP2
75526;SDS011;64107;49.248;7.006;2023-03-21T00:02:37;6.18;;;3.20;;
75526;SDS011;64107;49.248;7.006;2023-03-21T00:07:29;8.57;;;2.95;;
75526;SDS011;64107;49.248;7.006;2023-03-21T00:12:21;12.25;;;4.75;;
75526;SDS011;64107;49.248;7.006;2023-03-21T00:14:48;9.45;;;4.28;;
75526;SDS011;64107;49.248;7.006;2023-03-21T00:17:14;8.23;;;3.92;;
75526;SDS011;64107;49.248;7.006;2023-03-21T00:19:41;5.72;;;4.25;;
75526;SDS011;64107;49.248;7.006;2023-03-21T00:22:08;8.32;;;3.15;;
75526;SDS011;64107;49.248;7.006;2023-03-21T00:27:01;11.27;;;4.28;;
75526;SDS011;64107;49.248;7.006;2023-03-21T00:29:27;8.30;;;4.43;;
75526;SDS011;64107;49.248;7.006;2023-03-21T00:34:19;10.93;;;3.75;;
75526;SDS011;64107;49.248;7.006;2023-03-21T00:39:11;8.68;;;3.70;;
75526;SDS011;64107;49.248;7.006;2023-03-21T00:41:38;5.72;;;4.05;;
75526;SDS011;64107;49.248;7.006;2023-03-21T00:44:04;7.70;;;3.70;;
75526;SDS011;64107;49.248;7.006;2023-03-21T00:48:56;5.88;;;3.05;;
75526;SDS011;64107;49.248;7.006;2023-03-21T00:51:22;7.10;;;3.65;;
75526;SDS011;64107;49.248;7.006;2023-03-21T00:53:52;9.20;;;4.82;;
75526;SDS011;64107;49.248;7.006;2023-03-21T00:56:19;8.70;;;4.13;;
75526;SDS011;64107;49.248;7.006;2023-03-21T00:58:45;9.05;;;4.25;;
75526;SDS011;64107;49.248;7.006;2023-03-21T01:03:37;11.25;;;5.65;;
75526;SDS011;64107;49.248;7.006;2023-03-21T01:06:11;9.85;;;5.10;;
75526;SDS011;64107;49.248;7.006;2023-03-21T01:08:40;12.65;;;7.45;;
75526;SDS011;64107;49.248;7.006;2023-03-21T01:11:08;11.77;;;6.78;;
75526;SDS011;64107;49.248;7.006;2023-03-21T01:13:37;14.95;;;6.65;;
75526;SDS011;64107;49.248;7.006;2023-03-21T01:18:30;9.95;;;5.18;;
75526;SDS011;64107;49.248;7.006;2023-03-21T01:20:58;9.00;;;5.85;;
75526;SDS011;64107;49.248;7.006;2023-03-21T01:23:25;10.55;;;6.85;;
75526;SDS011;64107;49.248;7.006;2023-03-21T01:25:52;13.20;;;6.13;;
75526;SDS011;64107;49.248;7.006;2023-03-21T01:28:19;10.75;;;5.25;;
75526;SDS011;64107;49.248;7.006;2023-03-21T01:30:46;11.52;;;5.65;;
75526;SDS011;64107;49.248;7.006;2023-03-21T01:33:13;10.57;;;5.75;;
75526;SDS011;64107;49.248;7.006;2023-03-21T01:35:40;12.82;;;5.40;;
75526;SDS011;64107;49.248;7.006;2023-03-21T01:38:07;7.65;;;5.30;;
75526;SDS011;64107;49.248;7.006;2023-03-21T01:40:34;10.13;;;4.82;;
75526;SDS011;64107;49.248;7.006;2023-03-21T01:43:00;9.45;;;5.18;;
75526;SDS011;64107;49.248;7.006;2023-03-21T01:48:24;7.80;;;4.90;;
75526;SDS011;64107;49.248;7.006;2023-03-21T01:50:51;16.90;;;5.38;;
75526;SDS011;64107;49.248;7.006;2023-03-21T01:53:18;10.07;;;5.43;;
75526;SDS011;64107;49.248;7.006;2023-03-21T01:55:46;9.23;;;5.65;;
75526;SDS011;64107;49.248;7.006;2023-03-21T01:58:13;12.45;;;5.43;;
75526;SDS011;64107;49.248;7.006;2023-03-21T02:00:42;9.98;;;5.00;;
75526;SDS011;64107;49.248;7.006;2023-03-21T02:03:08;9.07;;;5.78;;
75526;SDS011;64107;49.248;7.006;2023-03-21T02:05:54;10.77;;;5.18;;
75526;SDS011;64107;49.248;7.006;2023-03-21T02:08:24;7.18;;;4.70;;
75526;SDS011;64107;49.248;7.006;2023-03-21T02:10:51;10.60;;;5.10;;
75526;SDS011;64107;49.248;7.006;2023-03-21T02:13:17;10.25;;;5.13;;
75526;SDS011;64107;49.248;7.006;2023-03-21T02:15:45;10.38;;;5.50;;
75526;SDS011;64107;49.248;7.006;2023-03-21T02:18:26;12.45;;;5.80;;
75526;SDS011;64107;49.248;7.006;2023-03-21T02:21:37;11.93;;;5.22;;
75526;SDS011;64107;49.248;7.006;2023-03-21T02:24:31;10.35;;;5.60;;
75526;SDS011;64107;49.248;7.006;2023-03-21T02:27:17;12.07;;;6.10;;
75526;SDS011;64107;49.248;7.006;2023-03-21T02:38:10;14.13;;;6.30;;
75526;SDS011;64107;49.248;7.006;2023-03-21T02:40:47;11.07;;;5.57;;
75526;SDS011;64107;49.248;7.006;2023-03-21T02:43:24;13.77;;;6.13;;
75526;SDS011;64107;49.248;7.006;2023-03-21T02:46:04;10.20;;;5.13;;
75526;SDS011;64107;49.248;7.006;2023-03-21T02:51:39;6.65;;;4.10;;
75526;SDS011;64107;49.248;7.006;2023-03-21T02:54:08;8.90;;;5.18;;
75526;SDS011;64107;49.248;7.006;2023-03-21T02:56:37;9.75;;;4.95;;
75526;SDS011;64107;49.248;7.006;2023-03-21T02:59:05;7.75;;;5.07;;
75526;SDS011;64107;49.248;7.006;2023-03-21T03:01:32;11.57;;;5.78;;
75526;SDS011;64107;49.248;7.006;2023-03-21T03:03:59;8.70;;;5.05;;
75526;SDS011;64107;49.248;7.006;2023-03-21T03:11:41;9.75;;;5.55;;
75526;SDS011;64107;49.248;7.006;2023-03-21T03:19:31;9.75;;;4.47;;
75526;SDS011;64107;49.248;7.006;2023-03-21T03:22:02;5.47;;;3.90;;
75526;SDS011;64107;49.248;7.006;2023-03-21T03:24:50;8.80;;;3.47;;
75526;SDS011;64107;49.248;7.006;2023-03-21T03:27:24;5.30;;;2.95;;
75526;SDS011;64107;49.248;7.006;2023-03-21T03:29:56;8.23;;;3.20;;
75526;SDS011;64107;49.248;7.006;2023-03-21T03:32:35;9.18;;;3.80;;
75526;SDS011;64107;49.248;7.006;2023-03-21T03:35:04;8.88;;;3.90;;
75526;SDS011;64107;49.248;7.006;2023-03-21T03:37:31;6.18;;;3.90;;
75526;SDS011;64107;49.248;7.006;2023-03-21T03:40:08;8.38;;;3.72;;
75526;SDS011;64107;49.248;7.006;2023-03-21T03:42:42;10.38;;;3.92;;
75526;SDS011;64107;49.248;7.006;2023-03-21T03:45:12;6.50;;;4.30;;
75526;SDS011;64107;49.248;7.006;2023-03-21T03:47:40;8.75;;;4.57;;
75526;SDS011;64107;49.248;7.006;2023-03-21T03:50:33;10.23;;;4.05;;
75526;SDS011;64107;49.248;7.006;2023-03-21T03:53:09;6.32;;;3.30;;
75526;SDS011;64107;49.248;7.006;2023-03-21T03:55:44;7.28;;;3.53;;
75526;SDS011;64107;49.248;7.006;2023-03-21T03:58:10;8.43;;;3.90;;
75526;SDS011;64107;49.248;7.006;2023-03-21T04:03:03;3.47;;;2.95;;
75526;SDS011;64107;49.248;7.006;2023-03-21T04:05:31;9.00;;;4.25;;
75526;SDS011;64107;49.248;7.006;2023-03-21T04:10:23;6.07;;;3.50;;
75526;SDS011;64107;49.248;7.006;2023-03-21T04:12:49;4.38;;;2.75;;
75526;SDS011;64107;49.248;7.006;2023-03-21T04:17:43;8.85;;;4.82;;
75526;SDS011;64107;49.248;7.006;2023-03-21T04:20:09;8.40;;;4.47;;
75526;SDS011;64107;49.248;7.006;2023-03-21T04:22:35;10.88;;;5.32;;
75526;SDS011;64107;49.248;7.006;2023-03-21T04:27:29;11.48;;;6.25;;
75526;SDS011;64107;49.248;7.006;2023-03-21T04:29:56;13.38;;;6.75;;
75526;SDS011;64107;49.248;7.006;2023-03-21T04:32:23;12.13;;;6.78;;
75526;SDS011;64107;49.248;7.006;2023-03-21T04:34:49;13.50;;;7.68;;
75526;SDS011;64107;49.248;7.006;2023-03-21T04:37:18;11.55;;;6.57;;
75526;SDS011;64107;49.248;7.006;2023-03-21T04:39:47;12.95;;;6.85;;
75526;SDS011;64107;49.248;7.006;2023-03-21T04:42:15;14.60;;;7.43;;
75526;SDS011;64107;49.248;7.006;2023-03-21T04:44:42;16.00;;;6.93;;
75526;SDS011;64107;49.248;7.006;2023-03-21T04:47:09;13.18;;;7.35;;
75526;SDS011;64107;49.248;7.006;2023-03-21T04:49:37;14.88;;;6.30;;
75526;SDS011;64107;49.248;7.006;2023-03-21T04:54:29;9.57;;;5.57;;
75526;SDS011;64107;49.248;7.006;2023-03-21T04:56:56;10.20;;;5.80;;
75526;SDS011;64107;49.248;7.006;2023-03-21T04:59:22;6.50;;;4.93;;
75526;SDS011;64107;49.248;7.006;2023-03-21T05:01:49;8.48;;;6.15;;
75526;SDS011;64107;49.248;7.006;2023-03-21T05:04:15;13.63;;;5.47;;
75526;SDS011;64107;49.248;7.006;2023-03-21T05:06:42;10.93;;;5.85;;
75526;SDS011;64107;49.248;7.006;2023-03-21T05:09:09;10.27;;;5.65;;
75526;SDS011;64107;49.248;7.006;2023-03-21T05:11:36;8.95;;;5.22;;
75526;SDS011;64107;49.248;7.006;2023-03-21T05:14:04;12.20;;;5.70;;
75526;SDS011;64107;49.248;7.006;2023-03-21T05:16:32;14.55;;;5.72;;
75526;SDS011;64107;49.248;7.006;2023-03-21T05:19:00;8.57;;;4.78;;
75526;SDS011;64107;49.248;7.006;2023-03-21T05:21:30;12.48;;;5.13;;
75526;SDS011;64107;49.248;7.006;2023-03-21T05:24:06;11.77;;;5.25;;
75526;SDS011;64107;49.248;7.006;2023-03-21T05:26:36;14.48;;;6.00;;
75526;SDS011;64107;49.248;7.006;2023-03-21T05:29:03;9.00;;;5.20;;
75526;SDS011;64107;49.248;7.006;2023-03-21T05:31:30;10.40;;;5.75;;
75526;SDS011;64107;49.248;7.006;2023-03-21T05:33:56;11.98;;;4.63;;
75526;SDS011;64107;49.248;7.006;2023-03-21T05:36:22;8.93;;;5.88;;
75526;SDS011;64107;49.248;7.006;2023-03-21T05:38:48;10.35;;;6.15;;
75526;SDS011;64107;49.248;7.006;2023-03-21T05:41:15;12.18;;;5.82;;
75526;SDS011;64107;49.248;7.006;2023-03-21T05:43:41;9.60;;;5.85;;
75526;SDS011;64107;49.248;7.006;2023-03-21T05:46:08;15.13;;;6.15;;
75526;SDS011;64107;49.248;7.006;2023-03-21T05:48:34;9.60;;;5.70;;
75526;SDS011;64107;49.248;7.006;2023-03-21T05:51:01;11.07;;;5.07;;
75526;SDS011;64107;49.248;7.006;2023-03-21T05:53:27;8.38;;;5.22;;
75526;SDS011;64107;49.248;7.006;2023-03-21T05:55:54;11.82;;;5.93;;
75526;SDS011;64107;49.248;7.006;2023-03-21T06:00:46;10.52;;;4.97;;
75526;SDS011;64107;49.248;7.006;2023-03-21T06:05:38;9.45;;;5.60;;
75526;SDS011;64107;49.248;7.006;2023-03-21T06:10:30;11.65;;;6.45;;
75526;SDS011;64107;49.248;7.006;2023-03-21T06:15:22;7.95;;;4.85;;
75526;SDS011;64107;49.248;7.006;2023-03-21T06:17:50;9.93;;;5.22;;
75526;SDS011;64107;49.248;7.006;2023-03-21T06:22:42;6.57;;;4.43;;
75526;SDS011;64107;49.248;7.006;2023-03-21T06:25:08;9.02;;;5.55;;
75526;SDS011;64107;49.248;7.006;2023-03-21T06:27:35;11.18;;;6.25;;
75526;SDS011;64107;49.248;7.006;2023-03-21T06:30:01;9.75;;;6.00;;
75526;SDS011;64107;49.248;7.006;2023-03-21T06:32:28;9.95;;;5.90;;
75526;SDS011;64107;49.248;7.006;2023-03-21T06:37:20;11.00;;;5.82;;
75526;SDS011;64107;49.248;7.006;2023-03-21T06:42:12;14.98;;;5.75;;
75526;SDS011;64107;49.248;7.006;2023-03-21T06:44:39;13.25;;;5.55;;
75526;SDS011;64107;49.248;7.006;2023-03-21T06:49:32;8.20;;;6.15;;
75526;SDS011;64107;49.248;7.006;2023-03-21T06:51:58;6.03;;;4.93;;
75526;SDS011;64107;49.248;7.006;2023-03-21T06:54:24;8.52;;;6.28;;
75526;SDS011;64107;49.248;7.006;2023-03-21T06:59:18;7.72;;;5.18;;
75526;SDS011;64107;49.248;7.006;2023-03-21T07:01:44;8.57;;;4.53;;
75526;SDS011;64107;49.248;7.006;2023-03-21T07:04:11;11.52;;;5.93;;
75526;SDS011;64107;49.248;7.006;2023-03-21T07:09:03;10.40;;;6.10;;
75526;SDS011;64107;49.248;7.006;2023-03-21T07:11:30;10.52;;;5.80;;
75526;SDS011;64107;49.248;7.006;2023-03-21T07:13:56;14.27;;;6.18;;
75526;SDS011;64107;49.248;7.006;2023-03-21T07:16:22;11.75;;;6.47;;
75526;SDS011;64107;49.248;7.006;2023-03-21T07:18:49;8.18;;;4.75;;
75526;SDS011;64107;49.248;7.006;2023-03-21T07:21:15;11.57;;;6.07;;
75526;SDS011;64107;49.248;7.006;2023-03-21T07:23:41;9.43;;;5.38;;
75526;SDS011;64107;49.248;7.006;2023-03-21T07:26:08;9.57;;;5.45;;
75526;SDS011;64107;49.248;7.006;2023-03-21T07:28:34;11.02;;;6.32;;
75526;SDS011;64107;49.248;7.006;2023-03-21T07:31:02;9.93;;;6.03;;
75526;SDS011;64107;49.248;7.006;2023-03-21T07:33:30;11.10;;;6.25;;
75526;SDS011;64107;49.248;7.006;2023-03-21T07:35:57;9.77;;;5.53;;
75526;SDS011;64107;49.248;7.006;2023-03-21T07:38:23;10.25;;;6.05;;
75526;SDS011;64107;49.248;7.006;2023-03-21T07:40:50;9.23;;;4.82;;
75526;SDS011;64107;49.248;7.006;2023-03-21T07:43:16;6.28;;;4.60;;
75526;SDS011;64107;49.248;7.006;2023-03-21T07:45:43;6.57;;;4.07;;
75526;SDS011;64107;49.248;7.006;2023-03-21T07:48:10;6.22;;;3.72;;
75526;SDS011;64107;49.248;7.006;2023-03-21T07:50:37;6.15;;;3.33;;
75526;SDS011;64107;49.248;7.006;2023-03-21T07:53:04;7.00;;;3.50;;
75526;SDS011;64107;49.248;7.006;2023-03-21T07:55:30;7.30;;;3.70;;
75526;SDS011;64107;49.248;7.006;2023-03-21T07:57:59;6.60;;;3.50;;
75526;SDS011;64107;49.248;7.006;2023-03-21T08:00:28;5.00;;;3.03;;
75526;SDS011;64107;49.248;7.006;2023-03-21T08:02:55;4.95;;;3.13;;
75526;SDS011;64107;49.248;7.006;2023-03-21T08:05:25;6.15;;;3.15;;
75526;SDS011;64107;49.248;7.006;2023-03-21T08:07:54;6.47;;;3.33;;
75526;SDS011;64107;49.248;7.006;2023-03-21T08:10:20;4.88;;;2.80;;
75526;SDS011;64107;49.248;7.006;2023-03-21T08:12:46;6.68;;;3.00;;
75526;SDS011;64107;49.248;7.006;2023-03-21T08:15:13;5.43;;;3.53;;
75526;SDS011;64107;49.248;7.006;2023-03-21T08:17:40;6.10;;;3.22;;
75526;SDS011;64107;49.248;7.006;2023-03-21T08:20:10;6.47;;;3.45;;
75526;SDS011;64107;49.248;7.006;2023-03-21T08:22:37;6.75;;;3.55;;
75526;SDS011;64107;49.248;7.006;2023-03-21T08:25:04;5.63;;;3.50;;
75526;SDS011;64107;49.248;7.006;2023-03-21T08:27:32;7.60;;;3.10;;
75526;SDS011;64107;49.248;7.006;2023-03-21T08:29:58;5.85;;;3.22;;
75526;SDS011;64107;49.248;7.006;2023-03-21T08:32:25;8.38;;;3.03;;
75526;SDS011;64107;49.248;7.006;2023-03-21T08:34:57;7.53;;;3.47;;
75526;SDS011;64107;49.248;7.006;2023-03-21T08:37:24;4.78;;;2.90;;
75526;SDS011;64107;49.248;7.006;2023-03-21T08:39:50;5.53;;;3.47;;
75526;SDS011;64107;49.248;7.006;2023-03-21T08:42:17;6.97;;;3.97;;
75526;SDS011;64107;49.248;7.006;2023-03-21T08:44:43;5.63;;;3.20;;
75526;SDS011;64107;49.248;7.006;2023-03-21T08:47:09;6.63;;;3.60;;
75526;SDS011;64107;49.248;7.006;2023-03-21T08:49:35;8.35;;;3.28;;
75526;SDS011;64107;49.248;7.006;2023-03-21T08:52:02;4.32;;;3.05;;
75526;SDS011;64107;49.248;7.006;2023-03-21T08:54:28;5.45;;;3.20;;
75526;SDS011;64107;49.248;7.006;2023-03-21T08:56:54;4.70;;;3.55;;
75526;SDS011;64107;49.248;7.006;2023-03-21T08:59:20;4.93;;;2.63;;
75526;SDS011;64107;49.248;7.006;2023-03-21T09:01:46;5.20;;;2.28;;
75526;SDS011;64107;49.248;7.006;2023-03-21T09:04:13;6.05;;;3.42;;
75526;SDS011;64107;49.248;7.006;2023-03-21T09:06:39;9.90;;;3.50;;
75526;SDS011;64107;49.248;7.006;2023-03-21T09:09:09;6.65;;;3.20;;
75526;SDS011;64107;49.248;7.006;2023-03-21T09:11:36;4.55;;;3.05;;
75526;SDS011;64107;49.248;7.006;2023-03-21T09:14:02;3.90;;;3.15;;
75526;SDS011;64107;49.248;7.006;2023-03-21T09:16:28;5.05;;;3.47;;
75526;SDS011;64107;49.248;7.006;2023-03-21T09:18:55;4.35;;;3.08;;
75526;SDS011;64107;49.248;7.006;2023-03-21T09:21:23;6.38;;;2.70;;
75526;SDS011;64107;49.248;7.006;2023-03-21T09:23:51;4.65;;;2.80;;
75526;SDS011;64107;49.248;7.006;2023-03-21T09:26:20;6.15;;;3.53;;
75526;SDS011;64107;49.248;7.006;2023-03-21T09:28:48;4.85;;;2.78;;
75526;SDS011;64107;49.248;7.006;2023-03-21T09:31:14;3.72;;;3.03;;
75526;SDS011;64107;49.248;7.006;2023-03-21T09:33:45;4.70;;;2.83;;
75526;SDS011;64107;49.248;7.006;2023-03-21T09:36:11;5.35;;;3.30;;
75526;SDS011;64107;49.248;7.006;2023-03-21T09:38:42;4.35;;;2.78;;
75526;SDS011;64107;49.248;7.006;2023-03-21T09:41:28;3.78;;;2.70;;
75526;SDS011;64107;49.248;7.006;2023-03-21T09:49:17;4.93;;;2.53;;
75526;SDS011;64107;49.248;7.006;2023-03-21T09:51:47;3.90;;;2.55;;
75526;SDS011;64107;49.248;7.006;2023-03-21T09:56:46;5.00;;;2.53;;
75526;SDS011;64107;49.248;7.006;2023-03-21T09:59:19;6.10;;;2.95;;
75526;SDS011;64107;49.248;7.006;2023-03-21T10:01:49;4.57;;;2.85;;
75526;SDS011;64107;49.248;7.006;2023-03-21T10:04:15;4.85;;;2.80;;
75526;SDS011;64107;49.248;7.006;2023-03-21T10:06:44;6.72;;;2.75;;
75526;SDS011;64107;49.248;7.006;2023-03-21T10:09:18;4.30;;;2.35;;
75526;SDS011;64107;49.248;7.006;2023-03-21T10:11:48;6.53;;;2.97;;
75526;SDS011;64107;49.248;7.006;2023-03-21T10:14:24;3.90;;;2.28;;
75526;SDS011;64107;49.248;7.006;2023-03-21T10:16:58;4.30;;;2.60;;
75526;SDS011;64107;49.248;7.006;2023-03-21T10:19:40;5.53;;;2.42;;
75526;SDS011;64107;49.248;7.006;2023-03-21T10:22:10;4.80;;;2.30;;
75526;SDS011;64107;49.248;7.006;2023-03-21T10:24:36;3.83;;;2.47;;
75526;SDS011;64107;49.248;7.006;2023-03-21T10:27:03;1.92;;;1.50;;
75526;SDS011;64107;49.248;7.006;2023-03-21T10:29:31;5.80;;;2.17;;
75526;SDS011;64107;49.248;7.006;2023-03-21T10:32:06;6.30;;;2.40;;
75526;SDS011;64107;49.248;7.006;2023-03-21T10:34:41;4.95;;;2.10;;
75526;SDS011;64107;49.248;7.006;2023-03-21T10:37:13;3.75;;;2.13;;
75526;SDS011;64107;49.248;7.006;2023-03-21T10:39:47;5.40;;;2.20;;
75526;SDS011;64107;49.248;7.006;2023-03-21T10:42:17;5.60;;;2.72;;
75526;SDS011;64107;49.248;7.006;2023-03-21T10:44:46;2.50;;;1.40;;
75526;SDS011;64107;49.248;7.006;2023-03-21T10:47:18;4.07;;;1.92;;
75526;SDS011;64107;49.248;7.006;2023-03-21T10:49:49;2.83;;;1.98;;
75526;SDS011;64107;49.248;7.006;2023-03-21T10:52:18;4.95;;;1.90;;
75526;SDS011;64107;49.248;7.006;2023-03-21T10:54:45;1.80;;;1.38;;
75526;SDS011;64107;49.248;7.006;2023-03-21T10:57:17;2.53;;;1.83;;
75526;SDS011;64107;49.248;7.006;2023-03-21T10:59:48;3.03;;;1.77;;
75526;SDS011;64107;49.248;7.006;2023-03-21T11:02:31;3.30;;;1.85;;
75526;SDS011;64107;49.248;7.006;2023-03-21T11:05:03;5.60;;;1.38;;
75526;SDS011;64107;49.248;7.006;2023-03-21T11:07:30;4.22;;;2.05;;
75526;SDS011;64107;49.248;7.006;2023-03-21T11:09:57;3.55;;;1.38;;
75526;SDS011;64107;49.248;7.006;2023-03-21T11:12:34;3.10;;;1.38;;
75526;SDS011;64107;49.248;7.006;2023-03-21T11:15:51;2.67;;;1.30;;
75526;SDS011;64107;49.248;7.006;2023-03-21T11:18:21;2.13;;;0.98;;
75526;SDS011;64107;49.248;7.006;2023-03-21T11:20:50;1.55;;;1.45;;
75526;SDS011;64107;49.248;7.006;2023-03-21T11:23:24;1.15;;;0.98;;
75526;SDS011;64107;49.248;7.006;2023-03-21T11:25:52;1.45;;;1.10;;
75526;SDS011;64107;49.248;7.006;2023-03-21T11:28:20;2.20;;;1.33;;
75526;SDS011;64107;49.248;7.006;2023-03-21T11:30:54;2.33;;;1.20;;
75526;SDS011;64107;49.248;7.006;2023-03-21T11:33:22;1.65;;;1.00;;
75526;SDS011;64107;49.248;7.006;2023-03-21T11:36:05;1.55;;;1.40;;
75526;SDS011;64107;49.248;7.006;2023-03-21T11:38:40;3.17;;;1.90;;
75526;SDS011;64107;49.248;7.006;2023-03-21T11:41:07;4.22;;;1.83;;
75526;SDS011;64107;49.248;7.006;2023-03-21T11:43:36;3.53;;;1.35;;
75526;SDS011;64107;49.248;7.006;2023-03-21T11:48:29;1.83;;;1.15;;
75526;SDS011;64107;49.248;7.006;2023-03-21T11:54:06;2.00;;;1.45;;
75526;SDS011;64107;49.248;7.006;2023-03-21T11:56:36;1.40;;;1.00;;
75526;SDS011;64107;49.248;7.006;2023-03-21T12:04:46;2.55;;;1.90;;
75526;SDS011;64107;49.248;7.006;2023-03-21T12:13:02;5.85;;;1.80;;
75526;SDS011;64107;49.248;7.006;2023-03-21T12:15:32;4.63;;;1.98;;
75526;SDS011;64107;49.248;7.006;2023-03-21T12:26:39;2.22;;;1.80;;
75526;SDS011;64107;49.248;7.006;2023-03-21T12:32:04;3.03;;;1.90;;
75526;SDS011;64107;49.248;7.006;2023-03-21T12:43:38;3.95;;;1.98;;
75526;SDS011;64107;49.248;7.006;2023-03-21T12:46:14;2.88;;;1.70;;
75526;SDS011;64107;49.248;7.006;2023-03-21T12:48:43;2.95;;;1.50;;
75526;SDS011;64107;49.248;7.006;2023-03-21T12:51:30;3.88;;;1.67;;
75526;SDS011;64107;49.248;7.006;2023-03-21T12:59:04;2.95;;;2.13;;
75526;SDS011;64107;49.248;7.006;2023-03-21T13:01:37;2.90;;;2.13;;
75526;SDS011;64107;49.248;7.006;2023-03-21T13:06:52;2.33;;;1.80;;
75526;SDS011;64107;49.248;7.006;2023-03-21T13:09:30;3.67;;;2.28;;
75526;SDS011;64107;49.248;7.006;2023-03-21T13:11:56;5.53;;;2.38;;
75526;SDS011;64107;49.248;7.006;2023-03-21T13:14:25;3.55;;;2.20;;
75526;SDS011;64107;49.248;7.006;2023-03-21T13:16:55;3.92;;;2.92;;
75526;SDS011;64107;49.248;7.006;2023-03-21T13:22:26;4.72;;;2.42;;
75526;SDS011;64107;49.248;7.006;2023-03-21T13:24:57;2.63;;;1.90;;
75526;SDS011;64107;49.248;7.006;2023-03-21T13:28:00;4.05;;;2.00;;
75526;SDS011;64107;49.248;7.006;2023-03-21T13:30:28;1.75;;;1.40;;
75526;SDS011;64107;49.248;7.006;2023-03-21T13:35:33;2.63;;;1.52;;
75526;SDS011;64107;49.248;7.006;2023-03-21T13:38:09;4.22;;;2.17;;
75526;SDS011;64107;49.248;7.006;2023-03-21T13:40:48;4.82;;;1.75;;
75526;SDS011;64107;49.248;7.006;2023-03-21T13:43:30;1.88;;;1.30;;
75526;SDS011;64107;49.248;7.006;2023-03-21T13:46:33;2.65;;;1.52;;
75526;SDS011;64107;49.248;7.006;2023-03-21T13:51:57;2.15;;;1.55;;
75526;SDS011;64107;49.248;7.006;2023-03-21T13:56:56;1.05;;;0.80;;
75526;SDS011;64107;49.248;7.006;2023-03-21T14:04:58;2.30;;;1.10;;
75526;SDS011;64107;49.248;7.006;2023-03-21T14:07:30;4.78;;;1.98;;
75526;SDS011;64107;49.248;7.006;2023-03-21T14:10:16;2.15;;;1.40;;
75526;SDS011;64107;49.248;7.006;2023-03-21T14:12:48;4.78;;;1.55;;
75526;SDS011;64107;49.248;7.006;2023-03-21T14:15:21;2.05;;;1.42;;
75526;SDS011;64107;49.248;7.006;2023-03-21T14:17:59;2.10;;;0.85;;
75526;SDS011;64107;49.248;7.006;2023-03-21T14:20:31;2.65;;;1.45;;
75526;SDS011;64107;49.248;7.006;2023-03-21T14:23:02;3.00;;;1.40;;
75526;SDS011;64107;49.248;7.006;2023-03-21T14:25:35;1.27;;;1.05;;
75526;SDS011;64107;49.248;7.006;2023-03-21T14:28:03;1.70;;;1.13;;
75526;SDS011;64107;49.248;7.006;2023-03-21T14:30:38;1.30;;;1.20;;
75526;SDS011;64107;49.248;7.006;2023-03-21T14:33:17;1.85;;;1.02;;
75526;SDS011;64107;49.248;7.006;2023-03-21T14:35:51;1.83;;;1.33;;
75526;SDS011;64107;49.248;7.006;2023-03-21T14:38:20;2.25;;;1.25;;
75526;SDS011;64107;49.248;7.006;2023-03-21T14:40:49;4.70;;;1.38;;
75526;SDS011;64107;49.248;7.006;2023-03-21T14:43:17;3.03;;;0.85;;
75526;SDS011;64107;49.248;7.006;2023-03-21T14:45:54;3.30;;;1.60;;
75526;SDS011;64107;49.248;7.006;2023-03-21T14:48:28;3.40;;;2.20;;
75526;SDS011;64107;49.248;7.006;2023-03-21T14:50:55;3.40;;;1.50;;
75526;SDS011;64107;49.248;7.006;2023-03-21T14:53:27;3.38;;;1.63;;
75526;SDS011;64107;49.248;7.006;2023-03-21T14:56:02;2.35;;;1.40;;
75526;SDS011;64107;49.248;7.006;2023-03-21T14:58:33;3.40;;;1.50;;
75526;SDS011;64107;49.248;7.006;2023-03-21T15:01:04;2.70;;;1.80;;
75526;SDS011;64107;49.248;7.006;2023-03-21T15:03:32;3.15;;;1.63;;
75526;SDS011;64107;49.248;7.006;2023-03-21T15:05:58;2.08;;;1.20;;
75526;SDS011;64107;49.248;7.006;2023-03-21T15:08:26;3.20;;;1.50;;
75526;SDS011;64107;49.248;7.006;2023-03-21T15:10:56;1.40;;;1.30;;
75526;SDS011;64107;49.248;7.006;2023-03-21T15:13:26;1.13;;;0.73;;
75526;SDS011;64107;49.248;7.006;2023-03-21T15:16:13;2.17;;;1.50;;
75526;SDS011;64107;49.248;7.006;2023-03-21T15:18:40;2.65;;;1.10;;
75526;SDS011;64107;49.248;7.006;2023-03-21T15:21:20;1.73;;;1.23;;
75526;SDS011;64107;49.248;7.006;2023-03-21T15:23:55;2.55;;;1.30;;
75526;SDS011;64107;49.248;7.006;2023-03-21T15:26:24;1.75;;;1.38;;
75526;SDS011;64107;49.248;7.006;2023-03-21T15:28:55;1.42;;;1.10;;
75526;SDS011;64107;49.248;7.006;2023-03-21T15:31:23;2.03;;;1.05;;
75526;SDS011;64107;49.248;7.006;2023-03-21T15:33:55;1.90;;;1.40;;
75526;SDS011;64107;49.248;7.006;2023-03-21T15:36:24;1.83;;;0.82;;
75526;SDS011;64107;49.248;7.006;2023-03-21T15:38:52;1.98;;;1.17;;
75526;SDS011;64107;49.248;7.006;2023-03-21T15:43:45;2.13;;;1.15;;
75526;SDS011;64107;49.248;7.006;2023-03-21T15:46:12;2.38;;;1.48;;
75526;SDS011;64107;49.248;7.006;2023-03-21T15:48:43;1.67;;;0.82;;
75526;SDS011;64107;49.248;7.006;2023-03-21T15:51:19;3.90;;;1.48;;
75526;SDS011;64107;49.248;7.006;2023-03-21T15:53:46;3.42;;;1.77;;
75526;SDS011;64107;49.248;7.006;2023-03-21T15:56:13;3.10;;;1.02;;
75526;SDS011;64107;49.248;7.006;2023-03-21T15:58:43;0.73;;;0.65;;
75526;SDS011;64107;49.248;7.006;2023-03-21T16:01:15;0.98;;;0.93;;
75526;SDS011;64107;49.248;7.006;2023-03-21T16:08:49;3.28;;;1.30;;
75526;SDS011;64107;49.248;7.006;2023-03-21T16:11:24;3.63;;;1.40;;
75526;SDS011;64107;49.248;7.006;2023-03-21T16:13:52;2.38;;;1.38;;
75526;SDS011;64107;49.248;7.006;2023-03-21T16:16:20;3.65;;;1.30;;
75526;SDS011;64107;49.248;7.006;2023-03-21T16:18:49;2.97;;;1.73;;
75526;SDS011;64107;49.248;7.006;2023-03-21T16:21:16;2.50;;;1.20;;
75526;SDS011;64107;49.248;7.006;2023-03-21T16:23:45;1.48;;;0.80;;
75526;SDS011;64107;49.248;7.006;2023-03-21T16:26:13;2.13;;;1.60;;
75526;SDS011;64107;49.248;7.006;2023-03-21T16:28:46;2.38;;;1.10;;
75526;SDS011;64107;49.248;7.006;2023-03-21T16:31:17;2.80;;;1.67;;
75526;SDS011;64107;49.248;7.006;2023-03-21T16:33:45;3.80;;;1.20;;
75526;SDS011;64107;49.248;7.006;2023-03-21T16:36:31;1.00;;;0.90;;
75526;SDS011;64107;49.248;7.006;2023-03-21T16:39:00;2.22;;;1.17;;
75526;SDS011;64107;49.248;7.006;2023-03-21T16:41:31;1.42;;;1.30;;
75526;SDS011;64107;49.248;7.006;2023-03-21T16:43:57;2.63;;;1.55;;
75526;SDS011;64107;49.248;7.006;2023-03-21T16:46:24;2.20;;;1.40;;
75526;SDS011;64107;49.248;7.006;2023-03-21T16:48:51;2.15;;;1.50;;
75526;SDS011;64107;49.248;7.006;2023-03-21T16:51:20;1.38;;;1.00;;
75526;SDS011;64107;49.248;7.006;2023-03-21T16:53:51;2.92;;;1.02;;
75526;SDS011;64107;49.248;7.006;2023-03-21T16:58:47;3.53;;;1.25;;
75526;SDS011;64107;49.248;7.006;2023-03-21T17:01:14;1.42;;;1.17;;
75526;SDS011;64107;49.248;7.006;2023-03-21T17:03:43;1.33;;;1.20;;
75526;SDS011;64107;49.248;7.006;2023-03-21T17:06:13;1.80;;;1.25;;
75526;SDS011;64107;49.248;7.006;2023-03-21T17:08:41;3.28;;;1.55;;
75526;SDS011;64107;49.248;7.006;2023-03-21T17:11:09;2.33;;;1.52;;
75526;SDS011;64107;49.248;7.006;2023-03-21T17:13:40;2.35;;;1.50;;
75526;SDS011;64107;49.248;7.006;2023-03-21T17:16:11;2.75;;;1.70;;
75526;SDS011;64107;49.248;7.006;2023-03-21T17:18:38;5.30;;;2.70;;
75526;SDS011;64107;49.248;7.006;2023-03-21T17:21:14;1.80;;;1.35;;
75526;SDS011;64107;49.248;7.006;2023-03-21T17:23:45;3.92;;;1.58;;
75526;SDS011;64107;49.248;7.006;2023-03-21T17:26:12;1.80;;;1.58;;
75526;SDS011;64107;49.248;7.006;2023-03-21T17:28:39;1.70;;;1.55;;
75526;SDS011;64107;49.248;7.006;2023-03-21T17:31:12;4.00;;;1.55;;
75526;SDS011;64107;49.248;7.006;2023-03-21T17:33:45;2.53;;;1.73;;
75526;SDS011;64107;49.248;7.006;2023-03-21T17:36:18;2.22;;;1.23;;
75526;SDS011;64107;49.248;7.006;2023-03-21T17:38:48;2.65;;;1.40;;
75526;SDS011;64107;49.248;7.006;2023-03-21T17:41:17;3.25;;;2.15;;
75526;SDS011;64107;49.248;7.006;2023-03-21T17:43:43;3.15;;;1.40;;